This is the latest recevied weather packets stored in our database for station/object KB2SKP. If no packets are shown the sender has not sent any weather packets the latest 1 day(s).
| Time | Temp. | Humidity | Pressure | Rain* | Wind** | Luminosity | Snow |
|---|---|---|---|---|---|---|---|
| 1778030023 | 23.33° C | 48% | 1008.5 hPa | 0 mm | 0.89 m/s, 117° | 0 W/m² | - |
| 1778029720 | 23.33° C | 48% | 1008.1 hPa | 0 mm | 0 m/s | 0 W/m² | - |
| 1778029419 | 23.33° C | 48% | 1008.1 hPa | 0 mm | 0 m/s | 0 W/m² | - |
| 1778029115 | 23.89° C | 47% | 1008 hPa | 0 mm | 0.45 m/s, 41° | 0 W/m² | - |
| 1778028812 | 23.33° C | 47% | 1008.1 hPa | 0 mm | 2.24 m/s, 113° | 0 W/m² | - |
| 1778028508 | 23.89° C | 47% | 1007.9 hPa | 0 mm | 0 m/s | 0 W/m² | - |
| 1778028206 | 23.89° C | 46% | 1008 hPa | 0 mm | 0 m/s | 0 W/m² | - |
| 1778027901 | 23.89° C | 45% | 1008 hPa | 0 mm | 1.34 m/s, 211° | 0 W/m² | - |
| 1778027598 | 23.89° C | 45% | 1007.7 hPa | 0 mm | 0.45 m/s, 355° | 0 W/m² | - |
| 1778027294 | 23.89° C | 44% | 1007.9 hPa | 0 mm | 0 m/s | 0 W/m² | - |
| 1778026991 | 24.44° C | 44% | 1007.8 hPa | 0 mm | 0 m/s | 0 W/m² | - |
| 1778026687 | 24.44° C | 43% | 1007.7 hPa | 0 mm | 0.89 m/s, 115° | 0 W/m² | - |
| 1778026384 | 24.44° C | 42% | 1007.8 hPa | 0 mm | 0.89 m/s, 79° | 0 W/m² | - |
| 1778026081 | 25° C | 42% | 1007.7 hPa | 0 mm | 0 m/s | 0 W/m² | - |
| 1778025779 | 25° C | 41% | 1007.5 hPa | 0 mm | 0 m/s | 1 W/m² | - |
| 1778025475 | 25° C | 41% | 1007.5 hPa | 0 mm | 0.45 m/s, 128° | 2 W/m² | - |
| 1778025173 | 25° C | 41% | 1007.5 hPa | 0 mm | 0.89 m/s, 27° | 2 W/m² | - |
| 1778024869 | 25° C | 41% | 1007.4 hPa | 0 mm | 0.45 m/s, 167° | 4 W/m² | - |
| 1778024567 | 25° C | 41% | 1007.3 hPa | 0 mm | 0 m/s | 6 W/m² | - |
| 1778024263 | 25.56° C | 40% | 1007.3 hPa | 0 mm | 0.89 m/s, 117° | 9 W/m² | - |
| 1778023962 | 25.56° C | 40% | 1007.2 hPa | 0 mm | 0.45 m/s, 209° | 12 W/m² | - |
| 1778023659 | 25.56° C | 39% | 1007.1 hPa | 0 mm | 0.45 m/s, 134° | 14 W/m² | - |
| 1778023356 | 25.56° C | 39% | 1007.2 hPa | 0 mm | 0.89 m/s, 147° | 17 W/m² | - |
| 1778023052 | 26.11° C | 39% | 1007.2 hPa | 0 mm | 0 m/s | 19 W/m² | - |
| 1778022752 | 26.11° C | 40% | 1007.1 hPa | 0 mm | 0 m/s | 21 W/m² | - |
* Rain latest hour (hover to see other rain measurements)
** Current wind speed in m/s (hover to see current wind gust speed)